Aérodrome :
LOGIN :

S'inscrire | Disclaimer

   EN    FR    IT 

 










Légende :    VFR   VFR Marginal   IFR   IFR Intensif   IFR Très Intensif
Visi : 
Plafond : 
>= 8 km
>= 3000ft
5 à 8 km
1000 à 3000 ft
1500m à 5 km
500 à 1000 ft
800 à 1500m
200 à 500 ft
< 800m
< 200 ft
Symboles :   Orages  Brouillard  Fortes neiges  Fortes précipitations  Vent > 20 kt
SIGMETs :   Divers  Orages  Givrage  Turbulence  Onde Orograph.  Cendres Volcan.







- Altitude de l'aérodrome : 63 ft
- Code IATA : BZM


EHWO - Woensdrecht Airbase

DERNIER METAR :
  • 281725Z AUTO 29008KT 240V320 9999 TS FEW016CB SCT055 BKN074 13/09 Q1021 BLU

METARs EXPIRÉS :
  • 281717Z AUTO 30005KT 250V330 9999 TS FEW015CB SCT079 14/10 Q1021 BLU
  • 281655Z AUTO 31003KT 220V330 9999 FEW002 FEW015CB BKN055 BKN064 14/11 Q1021 RETSRA BLU
  • 281645Z AUTO 31004KT 250V350 9999 -SHRA FEW015CB SCT071 BKN079 14/11 Q1021 BLU
  • 281633Z AUTO 31007KT 240V330 9999 TSRA +DZ FEW020CB BKN054 OVC063 15/10 Q1021 BLU
  • 281625Z AUTO 29012KT 240V350 9999 FEW025CB OVC054 15/09 Q1021 BLU
  • 281555Z AUTO 28009KT 9999 // FEW058 SCT280 18/08 Q1020 RE// BLU
  • 281525Z AUTO 24012KT 210V290 //// // OVC330 19/07 Q1020 RE//
  • 281455Z AUTO 25011KT 220V290 //// // BKN310 20/07 Q1020

TAF TAF EHWO
Valide du 28 à 09h jusqu'au 28 à 21h UTC


281352Z 2809/2821 24003KT CAVOK
BECMG 2810/2812 25013KT
TEMPO 2818/2821 26013G25KT 4000 -SHRA SCT040CB BKN050
BECMG 2820/2821 SCT040 CNL
Pas de NOTAMs connus pour ce terrain.



MET'MAP, la Météo Aéronautique d'un coup d'oeil ! - Copyright ORBIFLY Décembre 2007 - Disclaimer

ORBIFLY MET'MAP TEAM :

Programmation & Développement : Alexandra Zaïnal
Conception & Développement : Baudouin d'Aumeries
Co-Programmation & Développement : Marc-Olivier Méhu
Soutien technique & logistique : Manuel Goepfert

Contact : metmap@orbifly.com




SOURCES & CREDITS :

   NOAA